This is the latest recevied weather packets stored in our database for station/object K0UND-1. If no packets are shown the sender has not sent any weather packets the latest 10 day(s).
| Time | Temp. | Humidity | Pressure | Rain* | Wind** | Luminosity | Snow |
|---|---|---|---|---|---|---|---|
| 1777939207 | 5° C | 75% | 1006.1 hPa | 0 mm | - | - | - |
| 1777932011 | 3.89° C | 81% | 1005.1 hPa | 0.51 mm | - | - | - |
| 1777928413 | 6.11° C | 65% | 1004.4 hPa | 0 mm | - | - | - |
| 1777924806 | 3.89° C | 75% | 1004.4 hPa | 0 mm | - | - | - |
| 1777921213 | 7.22° C | 53% | 1003.4 hPa | 0 mm | - | - | - |
| 1777917607 | 7.78° C | 34% | 1003 hPa | 0 mm | - | - | - |
| 1777914013 | 7.78° C | 37% | 1002.7 hPa | 0 mm | - | - | - |
| 1777910408 | 7.22° C | 42% | 1002 hPa | 0 mm | - | - | - |
| 1777906809 | 7.78° C | 42% | 1001.4 hPa | 0 mm | - | - | - |
| 1777903205 | 6.11° C | 57% | 1000.7 hPa | 0 mm | - | - | - |
| 1777899622 | 6.11° C | 61% | 1000 hPa | 0 mm | - | - | - |
| 1777896010 | 6.11° C | 65% | 999 hPa | 0 mm | - | - | - |
| 1777892411 | 6.11° C | 76% | 997.6 hPa | 0 mm | - | - | - |
| 1777888809 | 7.22° C | 70% | 996.6 hPa | 0 mm | - | - | - |
| 1777885206 | 7.78° C | 76% | 994.9 hPa | 0 mm | - | - | - |
| 1777881608 | 7.78° C | 76% | 994.9 hPa | 0.25 mm | - | - | - |
| 1777878007 | 8.89° C | 66% | 996.3 hPa | 0 mm | - | - | - |
| 1777874407 | 12.78° C | 51% | 995.3 hPa | 0 mm | - | - | - |
| 1777870810 | 17.22° C | 45% | 993.2 hPa | 0 mm | - | - | - |
| 1777867204 | 17.78° C | 32% | 992.9 hPa | 0 mm | - | - | - |
| 1777863625 | 17.78° C | 30% | 992.9 hPa | 0 mm | - | - | - |
| 1777860005 | 21.11° C | 23% | 994.2 hPa | 0 mm | - | - | - |
| 1777856408 | 22.78° C | 20% | 995.6 hPa | 0 mm | - | - | - |
| 1777852811 | 23.89° C | 16% | 997 hPa | 0 mm | - | - | - |
| 1777849208 | 22.78° C | 17% | 998.3 hPa | 0 mm | - | - | - |
* Rain latest hour (hover to see other rain measurements)
** Current wind speed in m/s (hover to see current wind gust speed)